sensor_id;sensor_type;location;lat;lon;timestamp;pressure;altitude;pressure_sealevel;temperature;humidity
33913;BME280;20200;52.084;5.224;2023-02-01T00:01:24;153027.0;;;16.93;35.9
33913;BME280;20200;52.084;5.224;2023-02-01T00:03:00;152848.0;;;16.21;36.97
33913;BME280;20200;52.084;5.224;2023-02-01T00:06:12;152945.0;;;16.61;36.33
33913;BME280;20200;52.084;5.224;2023-02-01T00:07:49;152680.0;;;15.54;37.9
33913;BME280;20200;52.084;5.224;2023-02-01T00:09:26;152988.0;;;16.77;36.29
33913;BME280;20200;52.084;5.224;2023-02-01T00:12:41;152943.0;;;16.59;36.33
33913;BME280;20200;52.084;5.224;2023-02-01T00:14:17;152820.0;;;16.11;36.85
33913;BME280;20200;52.084;5.224;2023-02-01T00:15:54;152945.0;;;16.61;36.31
33913;BME280;20200;52.084;5.224;2023-02-01T00:19:10;152884.0;;;16.36;36.78
33913;BME280;20200;52.084;5.224;2023-02-01T00:20:48;152666.0;;;15.49;38.28
33913;BME280;20200;52.084;5.224;2023-02-01T00:22:24;152871.0;;;16.3;36.87
33913;BME280;20200;52.084;5.224;2023-02-01T00:24:02;153009.0;;;16.86;35.97
33913;BME280;20200;52.084;5.224;2023-02-01T00:27:17;152877.0;;;16.34;37.24
33913;BME280;20200;52.084;5.224;2023-02-01T00:28:53;152874.0;;;16.31;37.37
33913;BME280;20200;52.084;5.224;2023-02-01T00:30:29;153107.0;;;17.25;35.65
33913;BME280;20200;52.084;5.224;2023-02-01T00:33:42;152830.0;;;16.14;37.12
33913;BME280;20200;52.084;5.224;2023-02-01T00:35:18;152891.0;;;16.38;36.89
33913;BME280;20200;52.084;5.224;2023-02-01T00:36:54;152889.0;;;16.37;37.14
33913;BME280;20200;52.084;5.224;2023-02-01T00:38:31;153060.0;;;17.05;36.14
33913;BME280;20200;52.084;5.224;2023-02-01T00:41:46;152889.0;;;16.37;37.22
33913;BME280;20200;52.084;5.224;2023-02-01T00:43:22;153091.0;;;17.18;35.81
33913;BME280;20200;52.084;5.224;2023-02-01T00:44:58;152841.0;;;16.18;37.49
33913;BME280;20200;52.084;5.224;2023-02-01T00:48:12;152679.0;;;15.54;38.85
33913;BME280;20200;52.084;5.224;2023-02-01T00:49:48;152845.0;;;16.2;37.11
33913;BME280;20200;52.084;5.224;2023-02-01T00:51:25;152664.0;;;15.48;38.72
33913;BME280;20200;52.084;5.224;2023-02-01T00:54:39;152663.0;;;15.47;38.76
33913;BME280;20200;52.084;5.224;2023-02-01T00:56:16;152615.0;;;15.28;38.69
33913;BME280;20200;52.084;5.224;2023-02-01T00:57:52;152689.0;;;15.58;38.1
33913;BME280;20200;52.084;5.224;2023-02-01T00:59:28;152861.0;;;16.27;37.24
33913;BME280;20200;52.084;5.224;2023-02-01T01:02:44;152942.0;;;16.59;36.67
33913;BME280;20200;52.084;5.224;2023-02-01T01:04:20;152874.0;;;16.31;36.85
33913;BME280;20200;52.084;5.224;2023-02-01T01:05:57;152989.0;;;16.77;36.47
33913;BME280;20200;52.084;5.224;2023-02-01T01:09:09;152741.0;;;15.79;37.72
33913;BME280;20200;52.084;5.224;2023-02-01T01:10:45;152845.0;;;16.2;36.71
33913;BME280;20200;52.084;5.224;2023-02-01T01:12:21;152909.0;;;16.45;36.53
33913;BME280;20200;52.084;5.224;2023-02-01T01:15:36;152896.0;;;16.4;35.96
33913;BME280;20200;52.084;5.224;2023-02-01T01:17:13;152769.0;;;15.89;37.01
33913;BME280;20200;52.084;5.224;2023-02-01T01:18:49;152878.0;;;16.34;36.32
33913;BME280;20200;52.084;5.224;2023-02-01T01:20:27;152893.0;;;16.39;36.1
33913;BME280;20200;52.084;5.224;2023-02-01T01:23:40;152722.0;;;15.71;36.92
33913;BME280;20200;52.084;5.224;2023-02-01T01:25:17;152753.0;;;15.83;37.26
33913;BME280;20200;52.084;5.224;2023-02-01T01:26:53;152987.0;;;16.77;35.46
33913;BME280;20200;52.084;5.224;2023-02-01T01:30:06;152806.0;;;16.04;36.56
33913;BME280;20200;52.084;5.224;2023-02-01T01:31:43;152827.0;;;16.12;36.57
33913;BME280;20200;52.084;5.224;2023-02-01T01:33:19;153063.0;;;17.06;35.11
33913;BME280;20200;52.084;5.224;2023-02-01T01:36:31;152774.0;;;15.92;36.76
33913;BME280;20200;52.084;5.224;2023-02-01T01:38:08;152902.0;;;16.43;35.96
33913;BME280;20200;52.084;5.224;2023-02-01T01:39:45;152809.0;;;16.06;36.82
33913;BME280;20200;52.084;5.224;2023-02-01T01:41:23;152790.0;;;15.98;36.53
33913;BME280;20200;52.084;5.224;2023-02-01T01:45:20;152903.0;;;16.43;36.14
33913;BME280;20200;52.084;5.224;2023-02-01T01:46:57;152700.0;;;15.62;37.5
33913;BME280;20200;52.084;5.224;2023-02-01T01:48:33;152885.0;;;16.36;36.39
33913;BME280;20200;52.084;5.224;2023-02-01T01:50:14;152775.0;;;15.92;36.92
33913;BME280;20200;52.084;5.224;2023-02-01T01:51:59;153016.0;;;16.88;35.47
33913;BME280;20200;52.084;5.224;2023-02-01T01:55:22;152846.0;;;16.2;36.83
33913;BME280;20200;52.084;5.224;2023-02-01T01:57:03;152801.0;;;16.02;37.08
33913;BME280;20200;52.084;5.224;2023-02-01T01:58:42;153021.0;;;16.9;36.06
33913;BME280;20200;52.084;5.224;2023-02-01T02:00:20;152928.0;;;16.53;36.18
33913;BME280;20200;52.084;5.224;2023-02-01T02:03:37;153059.0;;;17.05;35.57
33913;BME280;20200;52.084;5.224;2023-02-01T02:05:15;152739.0;;;15.78;37.46
33913;BME280;20200;52.084;5.224;2023-02-01T02:06:59;152816.0;;;16.09;37.35
33913;BME280;20200;52.084;5.224;2023-02-01T02:08:37;152915.0;;;16.48;36.9
33913;BME280;20200;52.084;5.224;2023-02-01T02:11:52;152806.0;;;16.04;37.67
33913;BME280;20200;52.084;5.224;2023-02-01T02:13:31;152838.0;;;16.18;37.62
33913;BME280;20200;52.084;5.224;2023-02-01T02:15:12;152941.0;;;16.59;37.17
33913;BME280;20200;52.084;5.224;2023-02-01T02:17:17;152787.0;;;15.97;37.85
33913;BME280;20200;52.084;5.224;2023-02-01T02:19:04;152782.0;;;15.95;38.25
33913;BME280;20200;52.084;5.224;2023-02-01T02:23:03;152877.0;;;16.32;37.74
33913;BME280;20200;52.084;5.224;2023-02-01T02:26:42;152871.0;;;16.3;37.92
33913;BME280;20200;52.084;5.224;2023-02-01T02:28:55;152785.0;;;15.96;38.53
33913;BME280;20200;52.084;5.224;2023-02-01T02:32:22;152943.0;;;16.59;37.18
33913;BME280;20200;52.084;5.224;2023-02-01T02:34:54;152762.0;;;15.87;38.64
33913;BME280;20200;52.084;5.224;2023-02-01T02:36:40;152942.0;;;16.59;37.74
33913;BME280;20200;52.084;5.224;2023-02-01T02:38:30;153120.0;;;17.29;36.64
33913;BME280;20200;52.084;5.224;2023-02-01T02:40:14;152872.0;;;16.31;37.96
33913;BME280;20200;52.084;5.224;2023-02-01T02:47:30;152918.0;;;16.5;37.92
33913;BME280;20200;52.084;5.224;2023-02-01T02:49:43;152885.0;;;16.36;37.61
33913;BME280;20200;52.084;5.224;2023-02-01T02:55:38;152830.0;;;16.14;37.93
33913;BME280;20200;52.084;5.224;2023-02-01T03:05:36;152804.0;;;16.03;38.01
33913;BME280;20200;52.084;5.224;2023-02-01T03:07:57;152771.0;;;15.9;38.42
33913;BME280;20200;52.084;5.224;2023-02-01T03:09:37;152897.0;;;16.4;38.04
33913;BME280;20200;52.084;5.224;2023-02-01T03:11:16;152681.0;;;15.55;39.32
33913;BME280;20200;52.084;5.224;2023-02-01T03:14:41;152775.0;;;15.92;38.46
33913;BME280;20200;52.084;5.224;2023-02-01T03:16:24;152982.0;;;16.75;37.21
33913;BME280;20200;52.084;5.224;2023-02-01T03:18:07;152727.0;;;15.73;38.6
33913;BME280;20200;52.084;5.224;2023-02-01T03:19:51;152887.0;;;16.37;37.83
33913;BME280;20200;52.084;5.224;2023-02-01T03:23:16;152861.0;;;16.27;37.74
33913;BME280;20200;52.084;5.224;2023-02-01T03:24:59;152790.0;;;15.98;38.44
33913;BME280;20200;52.084;5.224;2023-02-01T03:26:42;153011.0;;;16.86;36.74
33913;BME280;20200;52.084;5.224;2023-02-01T03:28:25;152759.0;;;15.87;38.25
33913;BME280;20200;52.084;5.224;2023-02-01T03:30:11;152912.0;;;16.47;37.75
33913;BME280;20200;52.084;5.224;2023-02-01T03:33:31;152816.0;;;16.09;37.92
33913;BME280;20200;52.084;5.224;2023-02-01T03:35:08;152823.0;;;16.11;38.14
33913;BME280;20200;52.084;5.224;2023-02-01T03:36:48;153000.0;;;16.81;36.69
33913;BME280;20200;52.084;5.224;2023-02-01T03:38:28;152709.0;;;15.66;38.94
33913;BME280;20200;52.084;5.224;2023-02-01T03:41:50;152824.0;;;16.11;37.97
33913;BME280;20200;52.084;5.224;2023-02-01T03:43:30;152726.0;;;15.73;38.49
33913;BME280;20200;52.084;5.224;2023-02-01T03:45:13;152754.0;;;15.84;38.86
33913;BME280;20200;52.084;5.224;2023-02-01T03:46:57;152928.0;;;16.53;37.39
33913;BME280;20200;52.084;5.224;2023-02-01T03:50:17;152843.0;;;16.2;38.0
33913;BME280;20200;52.084;5.224;2023-02-01T03:51:58;152991.0;;;16.78;37.1
33913;BME280;20200;52.084;5.224;2023-02-01T03:53:36;152865.0;;;16.28;37.82
33913;BME280;20200;52.084;5.224;2023-02-01T03:55:19;152854.0;;;16.23;37.89
33913;BME280;20200;52.084;5.224;2023-02-01T03:58:40;152784.0;;;15.95;38.47
33913;BME280;20200;52.084;5.224;2023-02-01T04:00:19;152782.0;;;15.95;38.56
33913;BME280;20200;52.084;5.224;2023-02-01T04:01:59;152802.0;;;16.03;38.43
33913;BME280;20200;52.084;5.224;2023-02-01T04:03:35;152956.0;;;16.64;37.28
33913;BME280;20200;52.084;5.224;2023-02-01T04:06:48;152838.0;;;16.18;37.92
33913;BME280;20200;52.084;5.224;2023-02-01T04:08:25;152818.0;;;16.09;38.26
33913;BME280;20200;52.084;5.224;2023-02-01T04:10:01;152710.0;;;15.66;39.0
33913;BME280;20200;52.084;5.224;2023-02-01T04:13:14;152774.0;;;15.92;38.28
33913;BME280;20200;52.084;5.224;2023-02-01T04:14:50;152918.0;;;16.5;37.32
33913;BME280;20200;52.084;5.224;2023-02-01T04:16:27;152908.0;;;16.45;37.14
33913;BME280;20200;52.084;5.224;2023-02-01T04:19:41;152827.0;;;16.13;37.81
33913;BME280;20200;52.084;5.224;2023-02-01T04:21:17;152807.0;;;16.05;37.81
33913;BME280;20200;52.084;5.224;2023-02-01T04:22:53;153081.0;;;17.13;36.28
33913;BME280;20200;52.084;5.224;2023-02-01T04:24:30;152809.0;;;16.05;37.36
33913;BME280;20200;52.084;5.224;2023-02-01T04:27:43;152817.0;;;16.09;37.46
33913;BME280;20200;52.084;5.224;2023-02-01T04:29:19;152914.0;;;16.47;37.24
33913;BME280;20200;52.084;5.224;2023-02-01T04:30:55;152875.0;;;16.32;36.99
33913;BME280;20200;52.084;5.224;2023-02-01T04:34:09;152979.0;;;16.73;36.94
33913;BME280;20200;52.084;5.224;2023-02-01T04:37:21;152921.0;;;16.5;36.89
33913;BME280;20200;52.084;5.224;2023-02-01T04:40:33;152855.0;;;16.25;37.72
33913;BME280;20200;52.084;5.224;2023-02-01T04:42:09;152734.0;;;15.76;38.57
33913;BME280;20200;52.084;5.224;2023-02-01T04:43:45;152775.0;;;15.93;38.37
33913;BME280;20200;52.084;5.224;2023-02-01T04:45:22;152668.0;;;15.5;39.07
33913;BME280;20200;52.084;5.224;2023-02-01T04:48:34;152850.0;;;16.22;38.14
33913;BME280;20200;52.084;5.224;2023-02-01T04:50:11;152824.0;;;16.11;38.32
33913;BME280;20200;52.084;5.224;2023-02-01T04:51:47;152903.0;;;16.43;37.64
33913;BME280;20200;52.084;5.224;2023-02-01T04:55:02;152924.0;;;16.52;37.12
33913;BME280;20200;52.084;5.224;2023-02-01T04:56:39;152948.0;;;16.61;37.21
33913;BME280;20200;52.084;5.224;2023-02-01T04:58:16;152814.0;;;16.09;38.14
33913;BME280;20200;52.084;5.224;2023-02-01T05:01:29;152859.0;;;16.25;37.62
33913;BME280;20200;52.084;5.224;2023-02-01T05:03:06;152761.0;;;15.87;38.62
33913;BME280;20200;52.084;5.224;2023-02-01T05:04:43;152843.0;;;16.2;37.78
33913;BME280;20200;52.084;5.224;2023-02-01T05:06:19;152948.0;;;16.61;37.15
33913;BME280;20200;52.084;5.224;2023-02-01T05:09:31;152859.0;;;16.25;37.71
33913;BME280;20200;52.084;5.224;2023-02-01T05:13:47;152773.0;;;15.91;38.06
33913;BME280;20200;52.084;5.224;2023-02-01T05:15:23;152657.0;;;15.45;39.21
33913;BME280;20200;52.084;5.224;2023-02-01T05:16:59;152555.0;;;15.05;39.96
33913;BME280;20200;52.084;5.224;2023-02-01T05:20:12;152944.0;;;16.59;37.37
33913;BME280;20200;52.084;5.224;2023-02-01T05:21:48;152722.0;;;15.71;38.86
33913;BME280;20200;52.084;5.224;2023-02-01T05:23:24;152926.0;;;16.52;37.14
33913;BME280;20200;52.084;5.224;2023-02-01T05:26:38;152850.0;;;16.22;38.17
33913;BME280;20200;52.084;5.224;2023-02-01T05:28:15;152636.0;;;15.37;39.53
33913;BME280;20200;52.084;5.224;2023-02-01T05:29:51;152737.0;;;15.77;38.97
33913;BME280;20200;52.084;5.224;2023-02-01T05:31:27;152917.0;;;16.48;37.49
33913;BME280;20200;52.084;5.224;2023-02-01T05:34:40;152815.0;;;16.09;38.15
33913;BME280;20200;52.084;5.224;2023-02-01T05:36:16;152831.0;;;16.14;37.89
33913;BME280;20200;52.084;5.224;2023-02-01T05:37:53;152897.0;;;16.4;37.81
33913;BME280;20200;52.084;5.224;2023-02-01T05:41:05;152838.0;;;16.18;38.18
33913;BME280;20200;52.084;5.224;2023-02-01T05:42:41;152768.0;;;15.89;38.62
33913;BME280;20200;52.084;5.224;2023-02-01T05:44:17;152718.0;;;15.69;38.93
33913;BME280;20200;52.084;5.224;2023-02-01T05:47:30;152864.0;;;16.27;38.32
33913;BME280;20200;52.084;5.224;2023-02-01T05:49:06;152931.0;;;16.54;38.01
33913;BME280;20200;52.084;5.224;2023-02-01T05:50:42;152800.0;;;16.02;38.54
33913;BME280;20200;52.084;5.224;2023-02-01T05:52:19;152922.0;;;16.5;38.36
33913;BME280;20200;52.084;5.224;2023-02-01T05:55:32;152769.0;;;15.9;38.82
33913;BME280;20200;52.084;5.224;2023-02-01T05:57:08;152684.0;;;15.56;39.32
33913;BME280;20200;52.084;5.224;2023-02-01T05:58:44;152924.0;;;16.52;37.56
33913;BME280;20200;52.084;5.224;2023-02-01T06:01:59;152699.0;;;15.62;39.24
33913;BME280;20200;52.084;5.224;2023-02-01T06:03:35;152843.0;;;16.2;38.69
33913;BME280;20200;52.084;5.224;2023-02-01T06:05:12;152666.0;;;15.49;39.64
33913;BME280;20200;52.084;5.224;2023-02-01T06:08:27;152738.0;;;15.77;39.67
33913;BME280;20200;52.084;5.224;2023-02-01T06:10:03;152815.0;;;16.09;38.76
33913;BME280;20200;52.084;5.224;2023-02-01T06:11:41;152773.0;;;15.91;39.46
33913;BME280;20200;52.084;5.224;2023-02-01T06:13:17;152859.0;;;16.25;38.6
33913;BME280;20200;52.084;5.224;2023-02-01T06:16:31;152651.0;;;15.43;40.12
33913;BME280;20200;52.084;5.224;2023-02-01T06:18:07;152752.0;;;15.83;39.56
33913;BME280;20200;52.084;5.224;2023-02-01T06:19:44;152789.0;;;15.97;39.37
33913;BME280;20200;52.084;5.224;2023-02-01T06:22:59;152738.0;;;15.77;39.28
33913;BME280;20200;52.084;5.224;2023-02-01T06:24:35;152725.0;;;15.72;39.85
33913;BME280;20200;52.084;5.224;2023-02-01T06:26:11;152813.0;;;16.07;39.21
33913;BME280;20200;52.084;5.224;2023-02-01T06:29:26;152716.0;;;15.68;40.1
33913;BME280;20200;52.084;5.224;2023-02-01T06:31:04;152920.0;;;16.5;38.11
33913;BME280;20200;52.084;5.224;2023-02-01T06:32:42;152887.0;;;16.36;38.6
33913;BME280;20200;52.084;5.224;2023-02-01T06:34:18;152971.0;;;16.7;38.12
33913;BME280;20200;52.084;5.224;2023-02-01T06:37:36;152967.0;;;16.68;37.99
33913;BME280;20200;52.084;5.224;2023-02-01T06:39:16;152684.0;;;15.56;39.97
33913;BME280;20200;52.084;5.224;2023-02-01T06:40:53;152704.0;;;15.64;39.61
33913;BME280;20200;52.084;5.224;2023-02-01T06:42:30;152697.0;;;15.62;39.86
33913;BME280;20200;52.084;5.224;2023-02-01T06:45:42;152752.0;;;15.83;39.6
33913;BME280;20200;52.084;5.224;2023-02-01T06:47:18;152636.0;;;15.37;40.57
33913;BME280;20200;52.084;5.224;2023-02-01T06:48:54;152567.0;;;15.09;40.96
33913;BME280;20200;52.084;5.224;2023-02-01T06:52:06;152681.0;;;15.54;40.1
33913;BME280;20200;52.084;5.224;2023-02-01T06:53:43;152675.0;;;15.52;40.46
33913;BME280;20200;52.084;5.224;2023-02-01T06:55:19;152731.0;;;15.75;39.74
33913;BME280;20200;52.084;5.224;2023-02-01T06:58:33;152903.0;;;16.43;38.82
33913;BME280;20200;52.084;5.224;2023-02-01T07:00:10;152856.0;;;16.25;38.79
33913;BME280;20200;52.084;5.224;2023-02-01T07:01:46;152580.0;;;15.14;41.2
33913;BME280;20200;52.084;5.224;2023-02-01T07:04:58;152668.0;;;15.5;40.74
33913;BME280;20200;52.084;5.224;2023-02-01T07:06:35;152569.0;;;15.1;41.65
33913;BME280;20200;52.084;5.224;2023-02-01T07:08:11;152604.0;;;15.24;41.06
33913;BME280;20200;52.084;5.224;2023-02-01T07:09:47;152806.0;;;16.04;39.64
33913;BME280;20200;52.084;5.224;2023-02-01T07:13:00;152668.0;;;15.49;40.62
33913;BME280;20200;52.084;5.224;2023-02-01T07:14:36;152727.0;;;15.73;39.83
33913;BME280;20200;52.084;5.224;2023-02-01T07:16:14;152736.0;;;15.77;39.81
33913;BME280;20200;52.084;5.224;2023-02-01T07:19:31;152797.0;;;16.02;39.37
33913;BME280;20200;52.084;5.224;2023-02-01T07:21:07;152786.0;;;15.96;39.51
33913;BME280;20200;52.084;5.224;2023-02-01T07:22:44;152848.0;;;16.21;39.32
33913;BME280;20200;52.084;5.224;2023-02-01T07:24:21;152765.0;;;15.88;39.42
33913;BME280;20200;52.084;5.224;2023-02-01T07:27:37;152779.0;;;15.94;39.0
33913;BME280;20200;52.084;5.224;2023-02-01T07:29:13;152781.0;;;15.94;39.39
33913;BME280;20200;52.084;5.224;2023-02-01T07:30:51;152706.0;;;15.65;40.1
33913;BME280;20200;52.084;5.224;2023-02-01T07:34:04;152636.0;;;15.37;40.39
33913;BME280;20200;52.084;5.224;2023-02-01T07:35:41;152626.0;;;15.33;40.5
33913;BME280;20200;52.084;5.224;2023-02-01T07:37:17;152681.0;;;15.55;40.08
33913;BME280;20200;52.084;5.224;2023-02-01T07:40:30;152807.0;;;16.05;39.39
33913;BME280;20200;52.084;5.224;2023-02-01T07:42:07;152749.0;;;15.81;39.65
33913;BME280;20200;52.084;5.224;2023-02-01T07:43:43;152754.0;;;15.83;39.75
33913;BME280;20200;52.084;5.224;2023-02-01T07:45:20;152716.0;;;15.68;40.01
33913;BME280;20200;52.084;5.224;2023-02-01T07:48:33;152740.0;;;15.78;39.33
33913;BME280;20200;52.084;5.224;2023-02-01T07:50:10;152691.0;;;15.59;40.11
33913;BME280;20200;52.084;5.224;2023-02-01T07:51:46;152770.0;;;15.9;39.53
33913;BME280;20200;52.084;5.224;2023-02-01T07:54:58;152729.0;;;15.74;39.81
33913;BME280;20200;52.084;5.224;2023-02-01T07:56:34;152718.0;;;15.69;39.78
33913;BME280;20200;52.084;5.224;2023-02-01T07:58:11;152664.0;;;15.48;40.53
33913;BME280;20200;52.084;5.224;2023-02-01T08:03:21;152619.0;;;15.3;40.87
33913;BME280;20200;52.084;5.224;2023-02-01T08:04:57;152758.0;;;15.85;39.64
33913;BME280;20200;52.084;5.224;2023-02-01T08:06:34;152713.0;;;15.67;40.39
33913;BME280;20200;52.084;5.224;2023-02-01T08:09:46;152789.0;;;15.97;39.49
33913;BME280;20200;52.084;5.224;2023-02-01T08:11:23;152930.0;;;16.54;38.53
33913;BME280;20200;52.084;5.224;2023-02-01T08:13:01;152741.0;;;15.79;40.18
33913;BME280;20200;52.084;5.224;2023-02-01T08:14:41;152649.0;;;15.42;40.56
33913;BME280;20200;52.084;5.224;2023-02-01T08:17:56;152785.0;;;15.96;39.24
33913;BME280;20200;52.084;5.224;2023-02-01T08:19:32;152647.0;;;15.41;40.64
33913;BME280;20200;52.084;5.224;2023-02-01T08:21:10;152551.0;;;15.03;41.2
33913;BME280;20200;52.084;5.224;2023-02-01T08:24:25;152681.0;;;15.55;40.46
33913;BME280;20200;52.084;5.224;2023-02-01T08:26:07;152909.0;;;16.45;38.85
33913;BME280;20200;52.084;5.224;2023-02-01T08:27:48;152747.0;;;15.81;39.64
33913;BME280;20200;52.084;5.224;2023-02-01T08:29:24;152704.0;;;15.64;40.14
33913;BME280;20200;52.084;5.224;2023-02-01T08:32:41;152711.0;;;15.66;40.11
33913;BME280;20200;52.084;5.224;2023-02-01T08:34:17;152840.0;;;16.18;39.58
33913;BME280;20200;52.084;5.224;2023-02-01T08:35:53;152613.0;;;15.27;40.79
33913;BME280;20200;52.084;5.224;2023-02-01T08:39:09;152686.0;;;15.56;40.12
33913;BME280;20200;52.084;5.224;2023-02-01T08:40:46;152704.0;;;15.64;40.49
33913;BME280;20200;52.084;5.224;2023-02-01T08:42:54;152812.0;;;16.07;39.85
33913;BME280;20200;52.084;5.224;2023-02-01T08:44:31;152861.0;;;16.27;39.37
33913;BME280;20200;52.084;5.224;2023-02-01T08:46:07;152902.0;;;16.43;38.5
33913;BME280;20200;52.084;5.224;2023-02-01T08:49:23;152942.0;;;16.59;38.99
33913;BME280;20200;52.084;5.224;2023-02-01T08:51:01;152863.0;;;16.27;39.36
33913;BME280;20200;52.084;5.224;2023-02-01T08:52:38;153046.0;;;17.0;38.32
33913;BME280;20200;52.084;5.224;2023-02-01T08:55:50;152907.0;;;16.45;38.81
33913;BME280;20200;52.084;5.224;2023-02-01T08:57:26;152693.0;;;15.6;40.33
33913;BME280;20200;52.084;5.224;2023-02-01T08:59:02;152756.0;;;15.84;40.08
33913;BME280;20200;52.084;5.224;2023-02-01T09:00:40;152810.0;;;16.06;39.75
33913;BME280;20200;52.084;5.224;2023-02-01T09:03:55;152665.0;;;15.48;40.58
33913;BME280;20200;52.084;5.224;2023-02-01T09:05:31;152955.0;;;16.63;38.67
33913;BME280;20200;52.084;5.224;2023-02-01T09:07:07;153021.0;;;16.9;38.22
33913;BME280;20200;52.084;5.224;2023-02-01T09:10:20;152848.0;;;16.21;39.5
33913;BME280;20200;52.084;5.224;2023-02-01T09:11:56;153131.0;;;17.34;37.78
33913;BME280;20200;52.084;5.224;2023-02-01T09:13:33;152795.0;;;16.0;40.21
33913;BME280;20200;52.084;5.224;2023-02-01T09:16:47;152861.0;;;16.27;39.58
33913;BME280;20200;52.084;5.224;2023-02-01T09:18:23;153023.0;;;16.91;38.49
33913;BME280;20200;52.084;5.224;2023-02-01T09:20:00;153114.0;;;17.27;37.49
33913;BME280;20200;52.084;5.224;2023-02-01T09:21:37;153217.0;;;17.68;37.42
33913;BME280;20200;52.084;5.224;2023-02-01T09:24:51;152982.0;;;16.75;38.1
33913;BME280;20200;52.084;5.224;2023-02-01T09:26:27;152887.0;;;16.37;39.26
33913;BME280;20200;52.084;5.224;2023-02-01T09:28:06;152857.0;;;16.25;39.35
33913;BME280;20200;52.084;5.224;2023-02-01T09:31:18;153150.0;;;17.41;37.33
33913;BME280;20200;52.084;5.224;2023-02-01T09:32:55;153157.0;;;17.43;37.35
33913;BME280;20200;52.084;5.224;2023-02-01T09:34:31;152886.0;;;16.36;39.22
33913;BME280;20200;52.084;5.224;2023-02-01T09:36:08;152905.0;;;16.43;39.04
33913;BME280;20200;52.084;5.224;2023-02-01T09:39:22;153055.0;;;17.03;38.25
33913;BME280;20200;52.084;5.224;2023-02-01T09:40:59;152933.0;;;16.55;38.85
33913;BME280;20200;52.084;5.224;2023-02-01T09:42:48;152798.0;;;16.02;40.31
33913;BME280;20200;52.084;5.224;2023-02-01T09:44:58;153121.0;;;17.29;38.1
33913;BME280;20200;52.084;5.224;2023-02-01T09:47:22;152977.0;;;16.72;38.82
33913;BME280;20200;52.084;5.224;2023-02-01T09:49:03;152886.0;;;16.36;39.31
33913;BME280;20200;52.084;5.224;2023-02-01T09:50:55;153132.0;;;17.34;37.78
33913;BME280;20200;52.084;5.224;2023-02-01T09:54:38;153079.0;;;17.13;38.24
33913;BME280;20200;52.084;5.224;2023-02-01T09:56:20;153323.0;;;18.11;36.81
33913;BME280;20200;52.084;5.224;2023-02-01T09:58:02;153033.0;;;16.95;38.92
33913;BME280;20200;52.084;5.224;2023-02-01T09:59:43;152901.0;;;16.43;39.65
33913;BME280;20200;52.084;5.224;2023-02-01T10:01:24;152997.0;;;16.8;38.85
33913;BME280;20200;52.084;5.224;2023-02-01T10:04:39;153044.0;;;17.0;38.49
33913;BME280;20200;52.084;5.224;2023-02-01T10:06:28;153042.0;;;16.98;38.04
33913;BME280;20200;52.084;5.224;2023-02-01T10:08:51;153124.0;;;17.31;37.85
33913;BME280;20200;52.084;5.224;2023-02-01T10:10:40;153117.0;;;17.28;37.81
33913;BME280;20200;52.084;5.224;2023-02-01T10:12:48;152900.0;;;16.41;39.06
33913;BME280;20200;52.084;5.224;2023-02-01T10:16:06;152794.0;;;15.99;40.75
33913;BME280;20200;52.084;5.224;2023-02-01T10:19:48;152830.0;;;16.14;40.36
33913;BME280;20200;52.084;5.224;2023-02-01T10:21:39;152958.0;;;16.65;40.21
33913;BME280;20200;52.084;5.224;2023-02-01T10:23:41;153075.0;;;17.11;40.39
33913;BME280;20200;52.084;5.224;2023-02-01T10:26:18;152952.0;;;16.62;41.29
33913;BME280;20200;52.084;5.224;2023-02-01T10:27:56;152755.0;;;15.84;41.82
33913;BME280;20200;52.084;5.224;2023-02-01T10:29:38;152523.0;;;14.92;43.47
33913;BME280;20200;52.084;5.224;2023-02-01T10:31:17;152924.0;;;16.52;41.28
33913;BME280;20200;52.084;5.224;2023-02-01T10:33:07;152752.0;;;15.83;42.07
33913;BME280;20200;52.084;5.224;2023-02-01T10:34:57;152701.0;;;15.63;42.08
33913;BME280;20200;52.084;5.224;2023-02-01T10:38:24;152845.0;;;16.2;41.7
33913;BME280;20200;52.084;5.224;2023-02-01T10:40:12;152925.0;;;16.52;40.33
33913;BME280;20200;52.084;5.224;2023-02-01T10:41:57;152689.0;;;15.58;41.86
33913;BME280;20200;52.084;5.224;2023-02-01T10:43:34;152890.0;;;16.38;40.71
33913;BME280;20200;52.084;5.224;2023-02-01T10:45:13;152894.0;;;16.39;40.14
33913;BME280;20200;52.084;5.224;2023-02-01T10:48:29;152642.0;;;15.39;41.56
33913;BME280;20200;52.084;5.224;2023-02-01T10:50:15;152791.0;;;15.98;40.92
33913;BME280;20200;52.084;5.224;2023-02-01T10:51:58;152772.0;;;15.91;41.0
33913;BME280;20200;52.084;5.224;2023-02-01T10:53:44;153107.0;;;17.25;39.12
33913;BME280;20200;52.084;5.224;2023-02-01T10:57:20;153035.0;;;16.95;39.47
33913;BME280;20200;52.084;5.224;2023-02-01T10:59:02;152769.0;;;15.9;40.82
33913;BME280;20200;52.084;5.224;2023-02-01T11:00:44;152795.0;;;16.0;40.89
33913;BME280;20200;52.084;5.224;2023-02-01T11:02:26;152804.0;;;16.03;40.24
33913;BME280;20200;52.084;5.224;2023-02-01T11:04:05;152907.0;;;16.45;39.79
33913;BME280;20200;52.084;5.224;2023-02-01T11:07:24;153041.0;;;16.97;39.17
33913;BME280;20200;52.084;5.224;2023-02-01T11:09:10;153003.0;;;16.84;39.17
33913;BME280;20200;52.084;5.224;2023-02-01T11:10:58;152806.0;;;16.04;40.36
33913;BME280;20200;52.084;5.224;2023-02-01T11:12:36;152730.0;;;15.74;42.02
33913;BME280;20200;52.084;5.224;2023-02-01T11:15:55;152818.0;;;16.09;41.74
33913;BME280;20200;52.084;5.224;2023-02-01T11:17:34;152836.0;;;16.16;41.69
33913;BME280;20200;52.084;5.224;2023-02-01T11:19:15;152745.0;;;15.8;42.3
33913;BME280;20200;52.084;5.224;2023-02-01T11:20:53;152884.0;;;16.36;41.43
33913;BME280;20200;52.084;5.224;2023-02-01T11:24:18;152667.0;;;15.49;42.42
33913;BME280;20200;52.084;5.224;2023-02-01T11:26:02;152651.0;;;15.42;43.05
33913;BME280;20200;52.084;5.224;2023-02-01T11:27:47;152907.0;;;16.45;41.05
33913;BME280;20200;52.084;5.224;2023-02-01T11:29:35;152908.0;;;16.45;41.47
33913;BME280;20200;52.084;5.224;2023-02-01T11:31:13;153121.0;;;17.3;40.25
33913;BME280;20200;52.084;5.224;2023-02-01T11:34:31;153059.0;;;17.05;39.97
33913;BME280;20200;52.084;5.224;2023-02-01T11:36:16;152787.0;;;15.97;41.43